Time;durP1;ratioP1;P1;durP2;ratioP2;P2;SDS_P1;SDS_P2;PMS_P1;PMS_P2;Temp;Humidity;BMP_temperature;BMP_pressure;BME280_temperature;BME280_humidity;BME280_pressure;Samples;Min_cycle;Max_cycle;Signal;HPM_P1;HPM_P2
2023/06/29 00:00:00;;;;;;;1.83;1.35;;;27.20;52.40;;;;;;5115090;28;20114;-77
2023/06/29 00:02:29;;;;;;;1.23;1.13;;;27.20;52.40;;;;;;5115016;28;20044;-76
2023/06/29 00:04:55;;;;;;;1.38;1.27;;;27.10;52.30;;;;;;5114926;27;20470;-76
2023/06/29 00:07:24;;;;;;;1.13;1.00;;;27.10;52.30;;;;;;5115002;28;20027;-77
2023/06/29 00:09:54;;;;;;;1.30;1.20;;;27.20;52.30;;;;;;5114960;28;20124;-77
2023/06/29 00:12:20;;;;;;;0.98;0.98;;;27.10;52.30;;;;;;5114645;28;20112;-77
2023/06/29 00:14:46;;;;;;;2.13;1.40;;;27.10;52.30;;;;;;5113502;28;20035;-76
2023/06/29 00:17:16;;;;;;;1.95;1.27;;;27.10;52.30;;;;;;5129513;27;20101;-76
2023/06/29 00:19:42;;;;;;;3.38;1.30;;;27.00;52.30;;;;;;5114670;28;20031;-77
2023/06/29 00:22:10;;;;;;;1.42;1.30;;;27.20;52.30;;;;;;5114383;28;20097;-77
2023/06/29 00:24:43;;;;;;;2.20;1.60;;;27.00;52.30;;;;;;5114947;28;20380;-76
2023/06/29 00:27:13;;;;;;;2.08;1.10;;;27.10;52.40;;;;;;5114693;28;20027;-76
2023/06/29 00:29:43;;;;;;;2.58;1.20;;;27.00;52.50;;;;;;5114574;27;20031;-76
2023/06/29 00:32:12;;;;;;;2.65;1.52;;;26.90;51.90;;;;;;5096097;28;20493;-76
2023/06/29 00:34:39;;;;;;;0.90;0.90;;;27.00;52.50;;;;;;5095981;28;20445;-77
2023/06/29 00:37:05;;;;;;;3.38;1.48;;;26.80;52.00;;;;;;5114413;28;20067;-76
2023/06/29 00:39:34;;;;;;;3.67;1.20;;;26.90;52.00;;;;;;5114607;28;20040;-77
2023/06/29 00:42:00;;;;;;;1.65;1.33;;;26.90;52.00;;;;;;5112776;28;20429;-77
2023/06/29 00:44:26;;;;;;;1.00;1.00;;;26.90;52.00;;;;;;5096235;28;20052;-77
2023/06/29 00:46:53;;;;;;;2.45;1.45;;;26.90;52.00;;;;;;5113180;28;20031;-77
2023/06/29 00:49:20;;;;;;;3.40;1.45;;;26.90;52.00;;;;;;5114841;27;20079;-77
2023/06/29 00:51:50;;;;;;;1.95;1.23;;;27.00;52.50;;;;;;5114850;27;20105;-76
2023/06/29 00:54:19;;;;;;;2.65;1.20;;;26.90;51.90;;;;;;5090974;28;20040;-76
2023/06/29 00:56:48;;;;;;;4.15;1.42;;;27.10;52.50;;;;;;5057751;28;20052;-76
2023/06/29 00:59:15;;;;;;;1.40;1.27;;;27.10;52.50;;;;;;5074173;28;20081;-76
2023/06/29 01:01:43;;;;;;;4.80;1.40;;;27.10;52.40;;;;;;5090707;28;20543;-77
2023/06/29 01:04:10;;;;;;;1.77;1.30;;;27.00;52.40;;;;;;5074279;28;20047;-77
2023/06/29 01:06:57;;;;;;;5.05;1.75;;;27.00;52.40;;;;;;5091030;28;20100;-77
2023/06/29 01:09:24;;;;;;;3.13;1.40;;;27.00;52.40;;;;;;5089904;28;20719;-76
2023/06/29 01:11:51;;;;;;;2.92;1.38;;;27.00;52.40;;;;;;5073863;28;20061;-76
2023/06/29 01:14:19;;;;;;;1.27;1.02;;;27.00;52.40;;;;;;5073859;28;20052;-77
2023/06/29 01:16:47;;;;;;;3.55;1.20;;;27.00;52.30;;;;;;5090996;28;20062;-77
2023/06/29 01:19:21;;;;;;;1.20;1.10;;;27.10;52.30;;;;;;5090733;28;20032;-76
2023/06/29 01:22:03;;;;;;;1.50;1.40;;;27.00;52.30;;;;;;5090451;28;20067;-77
2023/06/29 01:24:49;;;;;;;1.02;1.00;;;27.00;52.30;;;;;;5081528;27;20050;-77
2023/06/29 01:27:16;;;;;;;1.63;1.52;;;27.10;52.30;;;;;;5111717;28;20175;-76
2023/06/29 01:29:42;;;;;;;1.58;1.38;;;26.90;51.70;;;;;;5111963;28;20070;-77
2023/06/29 01:32:10;;;;;;;3.63;1.30;;;26.90;51.80;;;;;;5113163;28;20158;-76
2023/06/29 01:34:37;;;;;;;3.70;1.50;;;26.90;51.80;;;;;;5113245;28;20031;-76
2023/06/29 01:37:25;;;;;;;4.72;1.30;;;26.90;51.80;;;;;;5078127;28;20476;-76
2023/06/29 01:39:58;;;;;;;7.35;1.85;;;26.80;51.90;;;;;;5110938;28;20054;-77
2023/06/29 01:42:25;;;;;;;4.15;1.58;;;26.90;51.90;;;;;;5111396;28;20436;-76
2023/06/29 01:44:54;;;;;;;4.90;1.65;;;27.00;52.50;;;;;;5111543;28;20202;-77
2023/06/29 01:47:21;;;;;;;3.10;2.10;;;26.80;52.00;;;;;;5112930;28;20032;-77
2023/06/29 01:49:49;;;;;;;4.28;1.50;;;26.90;52.10;;;;;;5112751;28;20069;-77
2023/06/29 01:52:16;;;;;;;2.42;1.40;;;26.90;52.00;;;;;;5113087;28;20063;-76
2023/06/29 01:54:42;;;;;;;2.58;1.20;;;26.90;52.00;;;;;;5111584;28;20023;-76
2023/06/29 01:57:08;;;;;;;1.98;1.60;;;26.90;51.90;;;;;;5112809;28;20066;-76
2023/06/29 01:59:35;;;;;;;2.20;0.98;;;27.00;52.50;;;;;;5113387;27;20050;-76
2023/06/29 02:02:02;;;;;;;1.55;1.20;;;26.90;51.90;;;;;;5130277;27;20043;-77
2023/06/29 02:04:31;;;;;;;1.17;1.13;;;26.90;51.90;;;;;;5113092;27;20035;-76
2023/06/29 02:06:57;;;;;;;6.97;1.58;;;26.90;51.90;;;;;;5130432;27;20031;-76
2023/06/29 02:09:23;;;;;;;2.63;1.42;;;26.90;51.90;;;;;;5130504;27;20538;-76
2023/06/29 02:11:49;;;;;;;2.00;1.35;;;27.00;52.40;;;;;;5130537;27;20122;-76
2023/06/29 02:14:17;;;;;;;3.10;1.80;;;27.00;52.40;;;;;;5130118;27;20062;-77
2023/06/29 02:16:51;;;;;;;3.05;1.30;;;27.00;52.30;;;;;;5113071;27;20045;-76
2023/06/29 02:19:17;;;;;;;1.73;1.30;;;27.10;52.30;;;;;;5113200;27;20035;-77
2023/06/29 02:21:44;;;;;;;2.55;1.58;;;27.00;52.30;;;;;;5130242;27;20110;-76
2023/06/29 02:24:10;;;;;;;1.55;1.45;;;27.00;52.30;;;;;;5112905;27;20179;-76
2023/06/29 02:26:36;;;;;;;6.78;1.48;;;27.00;52.30;;;;;;5096062;27;20515;-76
2023/06/29 02:29:04;;;;;;;3.53;1.45;;;26.90;51.70;;;;;;5096142;27;20545;-77
2023/06/29 02:31:30;;;;;;;1.92;1.48;;;26.90;51.70;;;;;;5129864;27;20137;-77
2023/06/29 02:33:57;;;;;;;1.75;1.38;;;26.90;51.80;;;;;;5095774;27;20039;-77
2023/06/29 02:36:23;;;;;;;3.38;1.25;;;27.00;52.30;;;;;;5109903;28;20054;-76
2023/06/29 02:38:49;;;;;;;1.17;1.13;;;27.00;52.30;;;;;;5111937;28;20031;-77
2023/06/29 02:41:16;;;;;;;1.65;1.52;;;26.80;51.80;;;;;;5111783;28;20050;-77
2023/06/29 02:43:42;;;;;;;1.35;1.25;;;27.00;52.40;;;;;;5093398;28;20126;-76
2023/06/29 02:46:08;;;;;;;6.68;1.50;;;26.90;51.80;;;;;;5112765;27;20051;-76
2023/06/29 02:48:36;;;;;;;3.90;1.40;;;26.80;51.90;;;;;;5095407;27;20391;-76
2023/06/29 02:51:03;;;;;;;3.90;1.00;;;26.70;52.00;;;;;;5112659;27;20047;-76
2023/06/29 02:53:29;;;;;;;1.52;1.38;;;26.90;52.00;;;;;;5112443;27;20031;-77
2023/06/29 02:55:55;;;;;;;2.53;1.30;;;26.80;52.00;;;;;;5129875;27;20411;-76
2023/06/29 02:58:20;;;;;;;1.38;1.27;;;26.90;52.00;;;;;;5129675;27;20142;-76
2023/06/29 03:00:49;;;;;;;3.55;1.42;;;26.90;51.90;;;;;;5112729;28;20087;-76
2023/06/29 03:03:15;;;;;;;2.70;1.40;;;26.80;51.80;;;;;;5129695;28;20180;-76
2023/06/29 03:05:41;;;;;;;1.40;1.30;;;27.00;52.40;;;;;;5112547;28;20035;-76
2023/06/29 03:08:07;;;;;;;3.58;1.50;;;26.90;51.80;;;;;;5112519;28;20047;-76
2023/06/29 03:10:33;;;;;;;2.85;1.58;;;26.90;51.80;;;;;;5095641;28;20043;-75
2023/06/29 03:12:59;;;;;;;3.83;1.42;;;26.90;51.70;;;;;;5129471;28;20084;-76
2023/06/29 03:15:25;;;;;;;1.50;1.40;;;26.80;51.70;;;;;;5129770;28;20460;-76
2023/06/29 03:17:51;;;;;;;2.22;1.38;;;26.90;51.70;;;;;;5129764;28;20051;-76
2023/06/29 03:20:17;;;;;;;3.80;1.55;;;26.90;51.70;;;;;;5088595;28;20036;-76
2023/06/29 03:22:43;;;;;;;1.80;1.35;;;27.10;52.20;;;;;;5085534;28;20079;-76
2023/06/29 03:25:10;;;;;;;1.50;1.40;;;26.90;51.70;;;;;;5051914;28;20068;-77
2023/06/29 03:27:37;;;;;;;2.22;1.10;;;27.00;52.20;;;;;;5068407;28;20180;-77
2023/06/29 03:30:03;;;;;;;1.25;1.15;;;27.00;52.20;;;;;;5068615;28;20129;-76
2023/06/29 03:32:31;;;;;;;1.45;1.35;;;26.90;51.60;;;;;;5070732;28;20563;-76
2023/06/29 03:34:56;;;;;;;2.63;1.30;;;26.90;51.60;;;;;;5072314;28;20032;-76
2023/06/29 03:37:22;;;;;;;1.27;1.20;;;27.00;52.10;;;;;;5072274;28;20039;-77
2023/06/29 03:39:48;;;;;;;4.53;1.40;;;27.00;52.10;;;;;;5072360;28;20408;-77
2023/06/29 03:42:14;;;;;;;2.17;1.45;;;26.90;51.50;;;;;;5072034;28;20041;-76
2023/06/29 03:44:40;;;;;;;1.38;1.13;;;27.00;52.10;;;;;;5071938;28;20221;-77
2023/06/29 03:47:07;;;;;;;4.72;1.50;;;26.80;51.50;;;;;;5072233;28;20570;-77
2023/06/29 03:49:33;;;;;;;2.53;1.30;;;27.00;52.00;;;;;;5072239;28;20127;-77
2023/06/29 03:51:59;;;;;;;1.45;1.25;;;26.90;51.50;;;;;;5106290;28;20507;-76
2023/06/29 03:54:27;;;;;;;3.70;1.42;;;26.90;51.60;;;;;;5114891;27;20039;-76
2023/06/29 03:56:54;;;;;;;1.70;1.60;;;26.90;51.70;;;;;;5114072;28;20042;-77
2023/06/29 03:59:20;;;;;;;3.83;1.27;;;26.90;51.70;;;;;;5096985;28;20089;-76
2023/06/29 04:01:46;;;;;;;1.75;1.65;;;26.90;51.70;;;;;;5113841;28;20039;-77
2023/06/29 04:04:12;;;;;;;4.82;1.23;;;27.00;52.20;;;;;;5114965;28;20509;-76
2023/06/29 04:06:38;;;;;;;2.53;1.40;;;26.90;51.60;;;;;;5115064;28;20490;-76
2023/06/29 04:09:04;;;;;;;3.67;1.27;;;26.80;51.60;;;;;;5114820;28;20024;-76
2023/06/29 04:11:30;;;;;;;2.97;1.30;;;26.90;51.60;;;;;;5115334;28;20539;-77
2023/06/29 04:13:56;;;;;;;4.85;1.25;;;26.90;51.60;;;;;;5114802;28;20042;-76
2023/06/29 04:16:22;;;;;;;1.15;0.90;;;27.00;52.10;;;;;;5114608;28;20027;-76
2023/06/29 04:18:48;;;;;;;1.58;1.48;;;27.00;52.10;;;;;;5114777;28;20036;-76
2023/06/29 04:21:14;;;;;;;1.10;1.10;;;27.00;52.10;;;;;;5113368;28;20463;-76
2023/06/29 04:23:40;;;;;;;1.77;1.42;;;27.10;52.20;;;;;;5114463;28;20051;-76
2023/06/29 04:26:07;;;;;;;1.38;1.33;;;27.00;52.20;;;;;;5113495;28;20458;-76
2023/06/29 04:28:35;;;;;;;2.08;1.70;;;27.00;52.10;;;;;;5112383;28;20055;-77
2023/06/29 04:31:02;;;;;;;3.95;1.30;;;26.90;51.50;;;;;;5095043;28;20112;-77
2023/06/29 04:33:28;;;;;;;3.88;1.77;;;27.10;52.10;;;;;;5114420;28;20035;-75
2023/06/29 04:35:54;;;;;;;4.15;1.90;;;27.10;52.10;;;;;;5113224;28;20391;-77
2023/06/29 04:38:25;;;;;;;2.00;1.60;;;27.00;52.10;;;;;;5114303;28;20130;-76
2023/06/29 04:41:03;;;;;;;2.38;1.40;;;27.10;52.10;;;;;;5114536;28;20054;-76
2023/06/29 04:43:32;;;;;;;2.55;1.60;;;27.10;52.10;;;;;;5113036;28;20475;-76
2023/06/29 04:46:00;;;;;;;3.85;1.80;;;27.00;52.10;;;;;;5113144;28;20044;-77
2023/06/29 04:48:32;;;;;;;1.95;1.65;;;27.00;52.10;;;;;;5112872;28;20122;-76
2023/06/29 04:51:02;;;;;;;4.32;1.50;;;27.00;52.10;;;;;;5114035;28;20085;-76
2023/06/29 04:53:28;;;;;;;1.88;1.38;;;27.00;52.10;;;;;;5113865;28;20035;-76
2023/06/29 04:55:55;;;;;;;1.52;0.90;;;27.00;52.10;;;;;;5114252;28;20486;-77
2023/06/29 04:58:21;;;;;;;5.82;1.38;;;26.80;51.40;;;;;;5112696;28;20045;-76
2023/06/29 05:00:47;;;;;;;1.48;1.38;;;27.00;52.00;;;;;;5112565;28;20031;-77
2023/06/29 05:03:13;;;;;;;2.40;1.15;;;27.00;52.10;;;;;;5113328;28;20059;-76
2023/06/29 05:05:39;;;;;;;5.50;1.27;;;27.00;52.10;;;;;;5113697;28;20077;-76
2023/06/29 05:08:06;;;;;;;2.13;1.40;;;27.00;52.10;;;;;;5113803;28;20027;-76
2023/06/29 05:10:32;;;;;;;4.65;1.35;;;27.10;52.10;;;;;;5113867;28;20118;-77
2023/06/29 05:12:58;;;;;;;1.40;1.30;;;26.90;51.50;;;;;;5113582;28;20482;-76
2023/06/29 05:15:24;;;;;;;2.70;1.30;;;27.10;52.10;;;;;;5113448;28;20027;-76
2023/06/29 05:17:52;;;;;;;1.70;1.33;;;27.20;52.10;;;;;;5113617;28;20046;-76
2023/06/29 05:20:18;;;;;;;5.72;1.63;;;27.00;52.00;;;;;;5112700;28;20207;-76
2023/06/29 05:22:44;;;;;;;3.22;1.50;;;27.00;52.00;;;;;;5113419;28;20046;-76
2023/06/29 05:25:10;;;;;;;1.42;1.23;;;27.00;52.00;;;;;;5113431;28;20031;-76
2023/06/29 05:27:36;;;;;;;1.40;1.30;;;27.00;52.00;;;;;;5113567;27;20084;-76
2023/06/29 05:30:03;;;;;;;2.75;1.38;;;27.10;52.00;;;;;;5113128;28;20034;-76
2023/06/29 05:32:30;;;;;;;1.88;1.30;;;27.10;52.10;;;;;;5113306;28;20088;-77
2023/06/29 05:34:56;;;;;;;2.35;1.30;;;27.10;52.10;;;;;;5113209;28;20031;-76
2023/06/29 05:37:22;;;;;;;2.42;1.48;;;27.20;52.10;;;;;;5113187;28;20391;-76
2023/06/29 05:39:48;;;;;;;0.98;0.98;;;27.10;52.00;;;;;;5113233;28;20024;-76
2023/06/29 05:42:14;;;;;;;1.23;1.13;;;27.00;52.00;;;;;;5113090;28;20044;-76
2023/06/29 05:44:40;;;;;;;1.85;1.20;;;27.00;52.00;;;;;;5113246;27;20078;-77
2023/06/29 05:47:06;;;;;;;0.90;0.90;;;27.00;52.00;;;;;;5111749;28;20471;-77
2023/06/29 05:49:32;;;;;;;2.88;1.13;;;27.10;52.00;;;;;;5113178;28;20114;-76
2023/06/29 05:51:58;;;;;;;0.65;0.65;;;27.10;52.00;;;;;;5113042;28;20562;-76
2023/06/29 05:54:24;;;;;;;1.05;0.93;;;27.10;52.00;;;;;;5112836;28;20502;-77
2023/06/29 05:56:50;;;;;;;3.80;1.15;;;27.10;52.00;;;;;;5111554;28;20059;-76
2023/06/29 05:59:16;;;;;;;1.10;1.00;;;27.10;52.00;;;;;;5113174;28;20455;-76
2023/06/29 06:01:42;;;;;;;1.20;1.10;;;27.00;52.00;;;;;;5109969;28;20048;-76
2023/06/29 06:04:08;;;;;;;2.30;1.08;;;27.00;51.90;;;;;;5110040;28;20414;-76
2023/06/29 06:06:34;;;;;;;1.00;0.90;;;27.10;51.90;;;;;;5110391;28;20040;-76
2023/06/29 06:09:00;;;;;;;2.40;1.30;;;27.00;52.00;;;;;;5110098;28;20059;-77
2023/06/29 06:11:27;;;;;;;1.02;0.93;;;27.10;52.00;;;;;;5110087;28;20036;-76
2023/06/29 06:13:52;;;;;;;3.20;1.33;;;27.10;52.00;;;;;;5109663;28;20058;-77
2023/06/29 06:16:19;;;;;;;3.53;1.00;;;27.00;52.00;;;;;;5109907;28;20530;-76
2023/06/29 06:18:44;;;;;;;1.23;1.13;;;27.10;52.00;;;;;;5109683;28;20032;-76
2023/06/29 06:21:10;;;;;;;4.95;1.70;;;26.90;51.50;;;;;;5109881;28;20191;-76
2023/06/29 06:23:36;;;;;;;2.53;1.00;;;27.00;52.10;;;;;;5092586;28;20423;-76
2023/06/29 06:26:02;;;;;;;1.33;0.80;;;27.20;52.00;;;;;;5109769;28;20047;-76
2023/06/29 06:28:28;;;;;;;0.98;0.88;;;27.10;52.00;;;;;;5092800;28;20394;-76
2023/06/29 06:30:54;;;;;;;1.23;1.23;;;27.20;52.00;;;;;;5109602;28;20046;-76
2023/06/29 06:33:20;;;;;;;1.17;1.10;;;27.00;52.00;;;;;;5109798;28;20067;-76
2023/06/29 06:35:46;;;;;;;1.33;0.90;;;27.10;52.00;;;;;;5092476;28;20134;-76
2023/06/29 06:38:13;;;;;;;1.48;1.20;;;27.10;51.90;;;;;;5109964;28;20119;-77
2023/06/29 06:40:38;;;;;;;1.33;1.23;;;27.00;52.00;;;;;;5111853;28;20562;-76
2023/06/29 06:43:04;;;;;;;1.10;1.10;;;27.10;51.90;;;;;;5110797;28;20039;-75
2023/06/29 06:45:31;;;;;;;2.88;1.27;;;27.20;51.90;;;;;;5110424;28;20406;-76
2023/06/29 06:47:56;;;;;;;1.10;1.00;;;27.10;51.90;;;;;;5112242;28;20073;-76
2023/06/29 06:50:22;;;;;;;2.78;1.20;;;27.10;51.90;;;;;;5112285;28;20035;-76
2023/06/29 06:52:48;;;;;;;0.77;0.77;;;27.20;51.90;;;;;;5112053;28;20027;-76
2023/06/29 06:55:15;;;;;;;0.77;0.77;;;27.00;51.90;;;;;;5110490;28;20463;-77
2023/06/29 06:57:40;;;;;;;0.95;0.95;;;27.10;51.90;;;;;;5111570;28;20038;-76
2023/06/29 07:00:10;;;;;;;0.60;0.60;;;27.10;51.90;;;;;;5111607;28;20487;-77
2023/06/29 07:02:37;;;;;;;1.10;1.00;;;27.00;51.90;;;;;;5111572;28;20559;-76
2023/06/29 07:05:05;;;;;;;0.77;0.77;;;27.00;51.90;;;;;;5111867;28;20049;-76
2023/06/29 07:07:31;;;;;;;1.17;1.08;;;26.90;51.30;;;;;;5111106;28;20035;-76
2023/06/29 07:09:58;;;;;;;3.33;0.80;;;27.10;51.90;;;;;;5111689;28;20044;-77
2023/06/29 07:12:24;;;;;;;1.02;1.02;;;27.10;51.90;;;;;;5110432;28;20081;-76
2023/06/29 07:14:50;;;;;;;0.85;0.85;;;27.00;51.90;;;;;;5111368;28;20035;-76
2023/06/29 07:17:16;;;;;;;1.65;0.90;;;27.00;51.90;;;;;;5111799;28;20143;-76
2023/06/29 07:19:42;;;;;;;0.93;0.80;;;27.00;51.90;;;;;;5110237;28;20068;-76
2023/06/29 07:22:08;;;;;;;3.40;0.98;;;26.90;51.30;;;;;;5110259;28;20043;-76
2023/06/29 07:24:34;;;;;;;3.08;0.95;;;27.00;51.90;;;;;;5111501;28;20038;-76
2023/06/29 07:27:00;;;;;;;1.58;0.70;;;27.10;51.70;;;;;;5111608;28;20036;-76
2023/06/29 07:29:27;;;;;;;0.80;0.80;;;26.90;51.40;;;;;;5110241;28;20046;-76
2023/06/29 07:31:53;;;;;;;0.75;0.75;;;26.90;51.40;;;;;;5111857;28;20047;-76
2023/06/29 07:34:23;;;;;;;1.33;0.98;;;27.10;52.00;;;;;;5111600;28;20036;-76
2023/06/29 07:36:49;;;;;;;1.15;0.98;;;27.10;52.00;;;;;;5110152;28;20387;-76
2023/06/29 07:39:15;;;;;;;0.95;0.77;;;27.00;52.00;;;;;;5111365;28;20568;-76
2023/06/29 07:41:41;;;;;;;1.38;1.00;;;27.00;52.00;;;;;;5111180;28;20059;-76
2023/06/29 07:44:07;;;;;;;3.28;0.80;;;27.10;52.00;;;;;;5111309;28;20056;-76
2023/06/29 07:46:33;;;;;;;0.93;0.90;;;27.10;52.00;;;;;;5111493;28;20063;-76
2023/06/29 07:49:05;;;;;;;3.65;1.08;;;27.10;51.90;;;;;;5111310;28;20570;-76
2023/06/29 07:51:33;;;;;;;1.58;0.70;;;27.00;52.00;;;;;;5111445;28;20023;-76
2023/06/29 07:54:03;;;;;;;1.00;0.90;;;27.00;52.00;;;;;;5111275;28;20035;-76
2023/06/29 07:56:33;;;;;;;1.00;0.82;;;27.10;52.00;;;;;;5109796;28;20085;-77
2023/06/29 07:58:59;;;;;;;0.75;0.75;;;27.10;52.00;;;;;;5110289;28;20047;-77
2023/06/29 08:01:25;;;;;;;0.80;0.80;;;27.30;51.90;;;;;;5111257;28;20534;-77
2023/06/29 08:03:51;;;;;;;2.78;0.82;;;27.10;51.90;;;;;;5111285;28;20107;-76
2023/06/29 08:06:17;;;;;;;2.42;1.08;;;27.20;51.90;;;;;;5111135;28;20054;-76
2023/06/29 08:08:43;;;;;;;0.82;0.75;;;27.00;50.70;;;;;;5111085;28;20424;-76
2023/06/29 08:11:14;;;;;;;2.70;0.60;;;27.00;51.40;;;;;;5109942;28;20047;-76
2023/06/29 08:13:41;;;;;;;0.60;0.60;;;27.00;51.50;;;;;;5111100;28;20486;-76
2023/06/29 08:16:07;;;;;;;0.60;0.60;;;27.00;51.90;;;;;;5109725;28;20059;-76
2023/06/29 08:18:33;;;;;;;0.57;0.57;;;27.10;51.60;;;;;;5113526;28;20031;-76
2023/06/29 08:20:59;;;;;;;1.25;1.15;;;27.00;51.20;;;;;;5114774;28;20112;-76
2023/06/29 08:23:25;;;;;;;0.40;0.40;;;27.00;51.70;;;;;;5113214;28;20032;-76
2023/06/29 08:25:51;;;;;;;1.45;0.63;;;27.00;51.60;;;;;;5114005;28;20051;-76
2023/06/29 08:28:17;;;;;;;2.47;1.02;;;27.00;51.70;;;;;;5114758;28;20040;-76
2023/06/29 08:30:43;;;;;;;2.50;0.60;;;26.90;51.40;;;;;;5114642;28;20043;-76
2023/06/29 08:33:09;;;;;;;0.60;0.60;;;27.00;51.70;;;;;;5114632;28;20039;-76
2023/06/29 08:35:35;;;;;;;0.57;0.57;;;27.00;51.90;;;;;;5114265;28;20063;-76
2023/06/29 08:38:01;;;;;;;0.93;0.75;;;26.90;51.30;;;;;;5114358;28;20133;-76
2023/06/29 08:40:33;;;;;;;0.90;0.77;;;26.90;51.30;;;;;;5114537;28;20035;-77
2023/06/29 08:42:59;;;;;;;0.57;0.57;;;26.90;51.50;;;;;;5114587;28;20442;-77
2023/06/29 08:45:25;;;;;;;0.90;0.80;;;27.00;52.00;;;;;;5114132;28;20507;-76
2023/06/29 08:47:53;;;;;;;0.80;0.80;;;26.90;51.40;;;;;;5114663;27;20139;-76
2023/06/29 08:50:26;;;;;;;0.82;0.82;;;27.00;52.20;;;;;;5114041;28;20518;-76
2023/06/29 08:52:52;;;;;;;1.00;0.68;;;27.10;52.20;;;;;;5114299;28;20360;-77
2023/06/29 08:55:19;;;;;;;0.70;0.70;;;26.90;51.60;;;;;;5114170;28;20071;-76
2023/06/29 08:57:48;;;;;;;0.55;0.55;;;27.00;52.10;;;;;;5114175;28;20139;-76
2023/06/29 09:00:15;;;;;;;1.02;0.98;;;26.90;51.40;;;;;;5114181;28;20031;-76
2023/06/29 09:02:43;;;;;;;0.63;0.63;;;27.00;52.10;;;;;;5113824;28;20471;-76
2023/06/29 09:05:11;;;;;;;0.85;0.80;;;26.90;51.50;;;;;;5113692;28;20031;-76
2023/06/29 09:07:39;;;;;;;0.75;0.75;;;27.00;52.10;;;;;;5113822;28;20035;-76
2023/06/29 09:10:07;;;;;;;0.80;0.80;;;26.90;51.50;;;;;;5114053;28;20083;-77
2023/06/29 09:12:36;;;;;;;1.15;1.02;;;27.00;52.10;;;;;;5113890;28;20051;-76
2023/06/29 09:15:13;;;;;;;0.63;0.60;;;27.10;52.10;;;;;;5113509;28;20031;-76
2023/06/29 09:17:45;;;;;;;0.80;0.65;;;27.10;52.00;;;;;;5113444;28;20662;-76
2023/06/29 09:20:15;;;;;;;0.80;0.80;;;27.10;52.00;;;;;;5131413;27;20039;-76
2023/06/29 09:22:42;;;;;;;2.15;0.73;;;27.20;52.00;;;;;;5131314;27;20184;-76
2023/06/29 09:25:10;;;;;;;0.70;0.70;;;27.20;52.00;;;;;;5131568;27;20054;-76
2023/06/29 09:27:36;;;;;;;0.60;0.60;;;27.20;51.90;;;;;;5131485;27;20117;-76
2023/06/29 09:30:04;;;;;;;1.27;0.80;;;27.00;51.90;;;;;;5130747;27;20031;-77
2023/06/29 09:32:30;;;;;;;0.75;0.75;;;27.20;51.90;;;;;;5131287;27;20514;-76
2023/06/29 09:35:08;;;;;;;0.70;0.70;;;27.10;51.80;;;;;;5080099;27;20590;-76
2023/06/29 09:37:35;;;;;;;0.80;0.75;;;27.20;51.80;;;;;;5131268;27;20038;-77
2023/06/29 09:40:05;;;;;;;0.68;0.68;;;27.30;51.80;;;;;;5131277;27;20388;-76
2023/06/29 09:42:37;;;;;;;0.70;0.70;;;27.20;51.70;;;;;;5130823;27;20497;-76
2023/06/29 09:45:14;;;;;;;1.25;0.73;;;27.30;51.70;;;;;;5113692;27;20070;-76
2023/06/29 09:47:51;;;;;;;0.60;0.60;;;27.20;51.70;;;;;;5113972;27;20073;-76
2023/06/29 09:50:22;;;;;;;0.75;0.75;;;27.30;51.70;;;;;;5128797;27;20043;-77
2023/06/29 09:52:54;;;;;;;0.60;0.60;;;27.30;51.60;;;;;;5112818;27;20047;-76
2023/06/29 09:55:28;;;;;;;0.70;0.60;;;27.30;51.60;;;;;;5112787;28;20028;-77
2023/06/29 09:57:56;;;;;;;0.63;0.57;;;27.30;51.60;;;;;;5111743;28;20044;-76
2023/06/29 10:00:22;;;;;;;1.05;0.65;;;27.40;51.60;;;;;;5113077;28;20084;-76
2023/06/29 10:02:48;;;;;;;0.77;0.77;;;27.30;51.50;;;;;;5111274;28;20037;-77
2023/06/29 10:05:14;;;;;;;0.80;0.80;;;27.30;51.50;;;;;;5112590;28;20031;-76
2023/06/29 10:07:41;;;;;;;0.93;0.85;;;27.30;51.50;;;;;;5112527;28;20046;-76
2023/06/29 10:10:10;;;;;;;0.98;0.95;;;27.40;51.40;;;;;;5094707;28;20058;-77
2023/06/29 10:12:36;;;;;;;5.05;1.30;;;27.30;51.40;;;;;;5112705;28;20062;-76
2023/06/29 10:15:11;;;;;;;0.98;0.90;;;27.30;51.40;;;;;;5112419;28;20081;-76
2023/06/29 10:18:25;;;;;;;0.70;0.70;;;27.40;51.40;;;;;;5112619;28;20700;-76
2023/06/29 10:20:51;;;;;;;1.23;1.00;;;27.40;51.40;;;;;;5069182;28;20052;-77
2023/06/29 10:23:21;;;;;;;3.33;0.75;;;27.50;51.30;;;;;;5009472;28;20057;-77
2023/06/29 10:25:49;;;;;;;0.70;0.70;;;27.40;51.30;;;;;;5009475;28;20533;-77
2023/06/29 10:28:16;;;;;;;1.20;1.10;;;27.40;51.30;;;;;;5009602;28;20382;-77
2023/06/29 10:30:46;;;;;;;0.70;0.70;;;27.50;51.30;;;;;;5009570;28;20807;-77
2023/06/29 10:33:13;;;;;;;0.70;0.70;;;27.40;51.30;;;;;;5009590;28;20038;-76
2023/06/29 10:35:40;;;;;;;1.63;0.73;;;27.40;51.30;;;;;;5009513;28;20029;-77
2023/06/29 10:38:12;;;;;;;0.80;0.80;;;27.50;51.30;;;;;;5009497;28;20490;-76
2023/06/29 10:40:48;;;;;;;0.60;0.60;;;27.40;51.30;;;;;;5009094;28;20763;-76
2023/06/29 10:43:14;;;;;;;0.73;0.73;;;27.40;51.30;;;;;;5009090;28;20053;-77
2023/06/29 10:45:41;;;;;;;1.40;1.17;;;27.40;51.30;;;;;;5009242;28;20077;-77
2023/06/29 10:48:09;;;;;;;0.80;0.80;;;27.30;51.30;;;;;;5009328;28;20045;-76
2023/06/29 10:50:38;;;;;;;0.60;0.60;;;27.30;51.30;;;;;;5009313;28;20046;-77
2023/06/29 10:53:07;;;;;;;0.82;0.82;;;27.30;51.30;;;;;;5009252;28;20045;-77
2023/06/29 10:55:44;;;;;;;1.25;0.85;;;27.30;51.30;;;;;;5068683;28;20059;-76
2023/06/29 10:58:31;;;;;;;0.57;0.50;;;27.20;51.40;;;;;;5093598;28;20073;-76
2023/06/29 11:00:58;;;;;;;0.70;0.70;;;27.20;51.40;;;;;;5111694;28;20019;-77
2023/06/29 11:03:24;;;;;;;0.63;0.63;;;27.20;51.40;;;;;;5111744;28;20046;-76
2023/06/29 11:05:52;;;;;;;1.13;0.88;;;27.30;51.40;;;;;;5111923;28;20448;-76
2023/06/29 11:08:23;;;;;;;1.25;1.10;;;27.30;51.40;;;;;;5110785;28;20040;-77
2023/06/29 11:10:50;;;;;;;1.20;0.88;;;27.20;51.40;;;;;;5093755;28;20137;-76
2023/06/29 11:13:19;;;;;;;0.70;0.70;;;27.20;51.40;;;;;;5109330;28;20047;-76
2023/06/29 11:15:55;;;;;;;1.02;0.93;;;27.40;51.30;;;;;;5110071;28;20341;-77
2023/06/29 11:18:22;;;;;;;1.77;0.80;;;27.40;51.30;;;;;;5111771;28;20108;-77
2023/06/29 11:20:48;;;;;;;1.20;1.10;;;27.40;51.40;;;;;;5110367;28;20051;-77
2023/06/29 11:23:14;;;;;;;1.05;1.00;;;27.30;51.40;;;;;;5110387;28;20043;-77
2023/06/29 11:25:40;;;;;;;0.95;0.88;;;27.40;51.30;;;;;;5111605;28;20035;-77
2023/06/29 11:28:06;;;;;;;2.83;0.80;;;27.30;51.30;;;;;;5111654;28;20395;-77
2023/06/29 11:30:32;;;;;;;0.68;0.60;;;27.50;51.30;;;;;;5111450;28;20040;-76
2023/06/29 11:33:00;;;;;;;0.88;0.63;;;27.30;51.30;;;;;;5111527;28;20059;-77
2023/06/29 11:35:26;;;;;;;0.50;0.50;;;27.40;51.30;;;;;;5111193;28;20035;-76
2023/06/29 11:38:00;;;;;;;1.25;1.00;;;27.40;51.30;;;;;;5111743;28;20027;-77
2023/06/29 11:40:27;;;;;;;0.60;0.60;;;27.40;51.30;;;;;;5111582;28;20067;-76
2023/06/29 11:42:54;;;;;;;2.97;1.00;;;27.40;51.40;;;;;;5110106;28;20098;-76
2023/06/29 11:45:23;;;;;;;3.80;0.95;;;27.40;51.40;;;;;;5110006;28;20047;-76
2023/06/29 11:47:56;;;;;;;0.77;0.77;;;27.20;51.40;;;;;;5112223;28;20082;-76
2023/06/29 11:50:23;;;;;;;;;;;27.30;51.40;;;;;;5129921;28;20126;-76
2023/06/29 11:52:50;;;;;;;1.08;0.77;;;27.40;51.40;;;;;;5130822;27;20464;-76
2023/06/29 11:55:16;;;;;;;1.23;1.10;;;27.20;51.40;;;;;;5092247;28;20040;-77
2023/06/29 11:57:50;;;;;;;1.00;0.95;;;27.30;51.40;;;;;;5075114;28;20122;-76
2023/06/29 12:00:16;;;;;;;0.60;0.60;;;27.40;51.40;;;;;;5092481;28;20044;-76
2023/06/29 12:02:43;;;;;;;1.23;1.13;;;27.40;51.40;;;;;;5092161;28;20512;-77
2023/06/29 12:05:09;;;;;;;0.80;0.80;;;27.30;51.50;;;;;;5092178;28;20126;-77
2023/06/29 12:07:39;;;;;;;0.90;0.88;;;27.20;51.50;;;;;;5091839;28;20048;-77
2023/06/29 12:10:10;;;;;;;0.73;0.73;;;27.20;51.50;;;;;;5075360;28;20046;-76
2023/06/29 12:12:38;;;;;;;0.70;0.70;;;27.10;51.50;;;;;;5091973;28;20127;-76
2023/06/29 12:15:20;;;;;;;0.73;0.73;;;27.20;51.50;;;;;;5091896;28;20096;-77
2023/06/29 12:17:48;;;;;;;;;;;27.20;51.60;;;;;;5090709;28;20128;-76
2023/06/29 12:20:22;;;;;;;1.10;1.00;;;27.20;51.50;;;;;;5071623;28;20028;-75
2023/06/29 12:22:55;;;;;;;2.47;1.05;;;27.30;51.60;;;;;;5071630;28;20091;-77
2023/06/29 12:25:31;;;;;;;0.80;0.80;;;27.30;51.60;;;;;;5060061;28;20031;-76
2023/06/29 12:27:57;;;;;;;0.63;0.63;;;27.30;51.60;;;;;;5098316;27;20043;-76
2023/06/29 12:30:24;;;;;;;0.70;0.70;;;27.30;51.60;;;;;;5098095;27;20054;-76
2023/06/29 12:32:51;;;;;;;1.20;0.68;;;27.30;51.60;;;;;;5097911;27;20530;-76
2023/06/29 12:35:18;;;;;;;2.67;0.70;;;27.20;51.60;;;;;;5115492;27;20054;-76
2023/06/29 12:37:48;;;;;;;0.77;0.73;;;27.20;51.60;;;;;;5132401;27;20435;-75
2023/06/29 12:40:15;;;;;;;0.50;0.50;;;27.20;51.60;;;;;;5132442;27;20043;-77
2023/06/29 12:42:48;;;;;;;3.63;1.38;;;27.20;51.60;;;;;;5132290;27;20043;-76
2023/06/29 12:45:14;;;;;;;1.63;1.27;;;27.20;51.60;;;;;;5132263;27;20047;-76
2023/06/29 12:47:41;;;;;;;2.28;1.33;;;27.30;51.60;;;;;;5132306;27;20060;-76
2023/06/29 12:50:08;;;;;;;1.00;0.80;;;27.20;51.60;;;;;;5132161;27;20145;-76